Time;durP1;ratioP1;P1;durP2;ratioP2;P2;SDS_P1;SDS_P2;PMS_P1;PMS_P2;Temp;Humidity;BMP_temperature;BMP_pressure;BME280_temperature;BME280_humidity;BME280_pressure;Samples;Min_cycle;Max_cycle;Signal;HPM_P1;HPM_P2
2023/06/04 00:01:28;;;;;;;5.93;4.53;;;;;;;;;;4981634;28;20047;-81
2023/06/04 00:03:57;;;;;;;11.63;4.78;;;;;;;;;;4980024;28;20129;-81
2023/06/04 00:06:23;;;;;;;8.25;4.43;;;;;;;;;;4980951;28;20019;-80
2023/06/04 00:08:57;;;;;;;8.68;4.88;;;14.00;99.90;;;;;;4982988;28;20026;-81
2023/06/04 00:11:26;;;;;;;7.68;5.57;;;;;;;;;;4982780;28;20071;-81
2023/06/04 00:13:52;;;;;;;11.05;4.30;;;13.90;99.90;;;;;;4983053;28;20058;-82
2023/06/04 00:16:26;;;;;;;6.30;4.07;;;13.80;99.90;;;;;;4980841;28;20291;-81
2023/06/04 00:18:56;;;;;;;8.10;4.55;;;13.80;99.90;;;;;;4998690;28;20015;-81
2023/06/04 00:21:22;;;;;;;;;;;13.80;99.90;;;;;;4996859;28;20027;-81
2023/06/04 00:23:48;;;;;;;13.82;4.95;;;;;;;;;;4980607;28;19930;-82
2023/06/04 00:26:20;;;;;;;11.18;5.28;;;13.60;99.90;;;;;;4979619;28;20059;-81
2023/06/04 00:28:46;;;;;;;12.55;5.20;;;;;;;;;;4980348;28;20023;-81
2023/06/04 00:31:12;;;;;;;5.45;4.57;;;;;;;;;;4978488;28;20030;-81
2023/06/04 00:33:39;;;;;;;8.90;5.28;;;13.70;99.90;;;;;;4979414;28;20007;-82
2023/06/04 00:36:07;;;;;;;9.23;5.00;;;13.70;99.90;;;;;;4996983;28;20035;-81
2023/06/04 00:38:41;;;;;;;9.38;4.20;;;;;;;;;;4995122;28;20058;-82
2023/06/04 00:41:07;;;;;;;8.40;5.05;;;;;;;;;;4976823;28;20094;-80
2023/06/04 00:43:35;;;;;;;7.38;4.88;;;;;;;;;;4976757;28;20023;-81
2023/06/04 00:46:02;;;;;;;7.50;4.73;;;;;;;;;;4979280;28;20057;-81
2023/06/04 00:48:36;;;;;;;8.15;4.82;;;13.40;99.90;;;;;;4996669;28;20031;-81
2023/06/04 00:51:04;;;;;;;5.93;5.00;;;13.50;99.90;;;;;;4979368;28;20277;-81
2023/06/04 00:53:52;;;;;;;11.00;4.25;;;13.50;99.90;;;;;;4996945;28;20023;-81
2023/06/04 00:56:19;;;;;;;9.63;5.25;;;13.50;99.90;;;;;;4993902;28;20077;-80
2023/06/04 00:58:47;;;;;;;6.13;4.32;;;;;;;;;;4978777;28;20113;-79
2023/06/04 01:01:57;;;;;;;9.90;5.22;;;13.40;99.90;;;;;;4992724;28;20065;-81
2023/06/04 01:04:32;;;;;;;7.07;5.00;;;13.40;99.90;;;;;;4977442;28;20027;-81
2023/06/04 01:07:02;;;;;;;9.18;5.80;;;13.40;99.90;;;;;;4993920;28;20027;-81
2023/06/04 01:09:35;;;;;;;;;;;13.30;99.90;;;;;;4976771;28;20073;-81
2023/06/04 01:12:27;;;;;;;5.32;4.80;;;13.30;99.90;;;;;;4977438;28;19913;-81
2023/06/04 01:14:53;;;;;;;8.15;4.93;;;;;;;;;;4978587;28;20046;-81
2023/06/04 01:17:28;;;;;;;8.57;5.03;;;13.30;99.90;;;;;;4977546;28;20392;-81
2023/06/04 01:20:11;;;;;;;9.05;4.93;;;13.30;99.90;;;;;;4977998;28;20030;-81
2023/06/04 01:22:42;;;;;;;12.20;4.90;;;;;;;;;;4994964;28;20026;-81
2023/06/04 01:25:31;;;;;;;4.75;3.83;;;13.10;99.90;;;;;;4992195;28;20066;-81
2023/06/04 01:27:58;;;;;;;8.07;4.85;;;13.10;99.90;;;;;;4968925;28;20014;-80
2023/06/04 01:30:32;;;;;;;9.23;4.97;;;13.20;99.90;;;;;;4990123;28;20061;-81
2023/06/04 01:32:59;;;;;;;9.63;4.50;;;13.20;99.90;;;;;;4973283;28;20031;-81
2023/06/04 01:35:32;;;;;;;5.47;3.78;;;13.20;99.90;;;;;;4977552;28;20125;-82
2023/06/04 01:37:58;;;;;;;5.30;4.10;;;;;;;;;;4978717;28;20479;-81
2023/06/04 01:40:25;;;;;;;8.50;4.88;;;;;;;;;;4977183;28;20035;-81
2023/06/04 01:42:51;;;;;;;13.43;4.30;;;;;;;;;;4976480;28;20007;-81
2023/06/04 01:45:18;;;;;;;5.97;4.53;;;;;;;;;;4991477;28;20038;-81
2023/06/04 01:47:44;;;;;;;7.47;4.55;;;;;;;;;;4989487;28;20062;-81
2023/06/04 01:50:19;;;;;;;6.72;4.57;;;13.10;99.90;;;;;;4973416;28;20527;-81
2023/06/04 01:52:46;;;;;;;8.45;5.57;;;;;;;;;;4971345;28;20062;-81
2023/06/04 01:55:14;;;;;;;9.20;4.10;;;13.00;99.90;;;;;;4971546;28;20030;-80
2023/06/04 01:57:44;;;;;;;7.40;4.22;;;13.00;99.90;;;;;;4993086;28;20031;-81
2023/06/04 02:00:34;;;;;;;8.15;4.30;;;13.00;99.90;;;;;;4993465;28;20043;-81
2023/06/04 02:03:02;;;;;;;9.80;4.35;;;;;;;;;;4993259;28;20074;-81
2023/06/04 02:05:28;;;;;;;7.63;4.47;;;;;;;;;;4976835;28;20050;-81
2023/06/04 02:07:54;;;;;;;6.10;3.90;;;;;;;;;;4975412;28;20031;-81
2023/06/04 02:10:22;;;;;;;7.32;4.70;;;12.80;99.90;;;;;;4974781;28;20021;-81
2023/06/04 02:13:02;;;;;;;6.45;4.30;;;12.70;99.90;;;;;;4977006;28;20030;-82
2023/06/04 02:15:32;;;;;;;7.22;4.93;;;12.70;99.90;;;;;;4994286;28;20050;-82
2023/06/04 02:18:17;;;;;;;7.43;4.15;;;12.60;99.90;;;;;;4978964;28;20031;-80
2023/06/04 02:20:45;;;;;;;9.05;4.35;;;12.50;99.90;;;;;;4994660;28;20031;-81
2023/06/04 02:23:11;;;;;;;9.40;4.85;;;;;;;;;;4977365;28;20013;-81
2023/06/04 02:25:37;;;;;;;7.15;4.22;;;;;;;;;;4978000;28;20023;-81
2023/06/04 02:28:03;;;;;;;9.02;4.20;;;;;;;;;;4977593;28;20031;-81
2023/06/04 02:30:30;;;;;;;6.25;3.95;;;12.30;99.90;;;;;;4977266;28;20027;-81
2023/06/04 02:33:00;;;;;;;6.55;4.22;;;;;;;;;;4977324;28;20031;-81
2023/06/04 02:35:28;;;;;;;8.13;4.03;;;12.20;99.90;;;;;;4978035;28;20030;-81
2023/06/04 02:37:58;;;;;;;11.43;4.45;;;12.20;99.90;;;;;;4977911;28;20035;-81
2023/06/04 02:40:27;;;;;;;7.28;4.60;;;12.20;99.90;;;;;;4973536;28;20122;-80
2023/06/04 02:42:57;;;;;;;10.02;4.95;;;12.10;99.90;;;;;;4971341;28;20082;-80
2023/06/04 02:45:24;;;;;;;5.53;4.20;;;12.10;99.90;;;;;;4967618;28;20054;-80
2023/06/04 02:47:50;;;;;;;7.88;4.70;;;;;;;;;;4970308;28;20027;-80
2023/06/04 02:50:17;;;;;;;9.32;4.47;;;;;;;;;;4971727;28;20127;-81
2023/06/04 02:52:43;;;;;;;9.52;4.90;;;11.90;99.90;;;;;;4968359;28;20086;-81
2023/06/04 02:55:17;;;;;;;8.32;4.78;;;11.90;99.90;;;;;;4969781;28;20027;-81
2023/06/04 02:57:43;;;;;;;6.22;4.57;;;11.90;99.90;;;;;;4970594;28;20023;-81
2023/06/04 03:00:17;;;;;;;11.77;4.93;;;12.80;99.90;;;;;;4970454;28;20031;-81
2023/06/04 03:02:48;;;;;;;5.72;4.65;;;11.90;99.90;;;;;;4988617;28;20044;-81
2023/06/04 03:05:17;;;;;;;5.70;3.88;;;11.80;99.90;;;;;;4968641;28;20065;-81
2023/06/04 03:07:44;;;;;;;8.65;4.65;;;11.80;99.90;;;;;;4966741;28;20032;-81
2023/06/04 03:10:11;;;;;;;11.35;4.80;;;11.80;99.90;;;;;;4951871;28;20039;-81
2023/06/04 03:12:38;;;;;;;6.05;4.45;;;;;;;;;;4967890;28;20019;-81
2023/06/04 03:15:05;;;;;;;6.88;4.22;;;11.90;99.90;;;;;;4968671;28;20043;-80
2023/06/04 03:17:33;;;;;;;6.00;4.85;;;;;;;;;;4966731;28;20053;-81
2023/06/04 03:19:59;;;;;;;6.25;4.57;;;;;;;;;;4983738;28;20102;-80
2023/06/04 03:22:26;;;;;;;10.32;4.97;;;;;;;;;;4984234;28;20251;-80
2023/06/04 03:24:52;;;;;;;8.55;4.35;;;;;;;;;;4969252;28;20037;-80
2023/06/04 03:27:18;;;;;;;6.80;4.55;;;;;;;;;;4954520;28;20045;-81
2023/06/04 03:29:45;;;;;;;7.90;4.25;;;;;;;;;;4969345;28;20027;-80
2023/06/04 03:32:30;;;;;;;9.95;4.75;;;;;;;;;;4988893;28;20042;-81
2023/06/04 03:34:56;;;;;;;5.72;3.78;;;;;;;;;;4972098;28;20117;-80
2023/06/04 03:37:22;;;;;;;6.20;3.63;;;;;;;;;;4972137;28;20066;-81
2023/06/04 03:39:48;;;;;;;8.38;4.28;;;;;;;;;;4988828;28;20050;-81
2023/06/04 03:42:14;;;;;;;8.40;4.03;;;;;;;;;;4971185;28;20029;-80
2023/06/04 03:44:40;;;;;;;5.32;4.07;;;;;;;;;;4970044;28;20031;-81
2023/06/04 03:47:06;;;;;;;4.55;3.88;;;;;;;;;;4973037;28;20446;-81
2023/06/04 03:49:32;;;;;;;10.77;4.45;;;;;;;;;;4972876;28;20122;-80
2023/06/04 03:51:58;;;;;;;6.03;3.95;;;;;;;;;;4974370;28;20010;-81
2023/06/04 03:54:24;;;;;;;6.55;4.13;;;12.10;99.90;;;;;;4973937;28;20046;-81
2023/06/04 03:56:50;;;;;;;5.43;3.53;;;;;;;;;;4975580;28;20022;-81
2023/06/04 03:59:19;;;;;;;10.55;4.15;;;12.20;99.90;;;;;;4977219;28;20038;-81
2023/06/04 04:01:45;;;;;;;6.40;4.38;;;;;;;;;;4974976;28;20023;-81
2023/06/04 04:04:12;;;;;;;7.18;3.90;;;;;;;;;;4988671;28;20475;-81
2023/06/04 04:06:38;;;;;;;4.65;3.47;;;;;;;;;;4972205;28;20102;-81
2023/06/04 04:09:05;;;;;;;4.55;3.33;;;;;;;;;;4974822;28;20122;-81
2023/06/04 04:11:31;;;;;;;5.28;4.03;;;;;;;;;;4975691;28;20031;-81
2023/06/04 04:13:58;;;;;;;4.65;3.60;;;;;;;;;;4973043;28;20094;-80
2023/06/04 04:16:25;;;;;;;5.00;3.70;;;12.40;99.90;;;;;;4982005;28;20035;-79
2023/06/04 04:18:51;;;;;;;3.92;3.50;;;12.40;99.90;;;;;;4966812;28;20035;-79
2023/06/04 04:21:17;;;;;;;3.78;3.35;;;;;;;;;;4969417;28;20314;-80
2023/06/04 04:23:45;;;;;;;5.25;3.33;;;12.50;99.90;;;;;;4964525;28;20073;-80
2023/06/04 04:26:16;;;;;;;7.72;3.17;;;;;;;;;;4983666;28;20054;-80
2023/06/04 04:28:42;;;;;;;7.03;3.50;;;12.50;99.90;;;;;;4965210;28;20082;-81
2023/06/04 04:31:08;;;;;;;4.30;3.65;;;;;;;;;;4966101;28;20027;-80
2023/06/04 04:33:39;;;;;;;7.45;3.45;;;12.80;99.90;;;;;;4965273;28;20030;-81
2023/06/04 04:36:05;;;;;;;5.75;3.72;;;;;;;;;;4993001;28;20043;-81
2023/06/04 04:38:33;;;;;;;5.35;3.42;;;13.30;99.90;;;;;;4977087;28;20335;-80
2023/06/04 04:41:01;;;;;;;4.10;3.45;;;;;;;;;;4974904;28;20043;-80
2023/06/04 04:43:34;;;;;;;4.50;3.55;;;13.80;99.90;;;;;;4992647;28;20500;-80
2023/06/04 04:46:04;;;;;;;7.55;3.47;;;14.00;99.90;;;;;;4985341;28;20046;-81
2023/06/04 04:48:30;;;;;;;4.35;3.45;;;14.20;99.90;;;;;;4949396;28;20086;-81
2023/06/04 04:50:55;;;;;;;3.15;2.85;;;14.30;99.90;;;;;;4963657;28;20043;-81
2023/06/04 04:53:22;;;;;;;7.63;3.30;;;14.60;99.90;;;;;;4960481;28;20027;-82
2023/06/04 04:55:48;;;;;;;5.13;3.60;;;14.60;99.90;;;;;;4960197;28;20118;-81
2023/06/04 04:58:14;;;;;;;5.50;3.47;;;14.80;99.90;;;;;;4957691;28;20065;-82
2023/06/04 05:00:39;;;;;;;6.75;3.28;;;15.00;99.90;;;;;;4957159;28;20030;-83
2023/06/04 05:03:05;;;;;;;4.75;3.10;;;15.10;99.90;;;;;;4973828;28;20046;-82
2023/06/04 05:05:32;;;;;;;3.10;2.80;;;15.40;99.90;;;;;;4957738;28;20554;-83
2023/06/04 05:07:57;;;;;;;4.07;3.40;;;15.40;99.90;;;;;;4957206;28;20376;-83
2023/06/04 05:10:23;;;;;;;5.13;2.60;;;15.50;99.90;;;;;;4957017;28;20026;-83
2023/06/04 05:12:57;;;;;;;3.72;2.42;;;15.50;99.90;;;;;;4956266;28;20436;-82
2023/06/04 05:15:24;;;;;;;4.70;2.88;;;15.40;99.90;;;;;;4956137;28;20030;-84
2023/06/04 05:17:52;;;;;;;6.80;2.63;;;15.50;99.90;;;;;;4956001;28;20153;-84
2023/06/04 05:20:18;;;;;;;5.07;2.97;;;15.40;99.90;;;;;;4956055;28;20113;-82
2023/06/04 05:22:45;;;;;;;2.70;2.50;;;15.60;99.90;;;;;;4956036;28;20030;-82
2023/06/04 05:25:11;;;;;;;3.55;2.38;;;15.70;99.90;;;;;;4955461;28;20060;-83
2023/06/04 05:27:38;;;;;;;5.47;2.97;;;15.80;99.90;;;;;;4955690;28;20034;-82
2023/06/04 05:30:04;;;;;;;3.80;2.60;;;15.90;99.90;;;;;;4955775;28;20480;-87
2023/06/04 05:32:31;;;;;;;6.95;2.58;;;16.10;99.90;;;;;;4955896;28;20030;-83
2023/06/04 05:34:58;;;;;;;7.43;3.15;;;16.20;99.90;;;;;;4955686;28;20101;-83
2023/06/04 05:37:28;;;;;;;5.93;2.80;;;16.20;99.90;;;;;;4955648;28;20023;-86
2023/06/04 05:39:55;;;;;;;4.97;2.80;;;16.40;99.90;;;;;;4954732;28;20047;-76
2023/06/04 05:42:20;;;;;;;6.05;2.58;;;16.40;99.90;;;;;;4954512;28;20023;-79
2023/06/04 05:44:46;;;;;;;4.53;2.92;;;16.50;99.90;;;;;;4954585;28;20052;-82
2023/06/04 05:47:13;;;;;;;3.60;2.30;;;16.60;99.90;;;;;;4973685;28;20031;-89
2023/06/04 05:49:39;;;;;;;4.55;3.47;;;16.80;99.90;;;;;;4978667;28;20039;-79
2023/06/04 05:52:05;;;;;;;4.65;2.72;;;16.90;99.90;;;;;;4970247;28;20505;-84
2023/06/04 05:54:31;;;;;;;4.65;3.03;;;17.00;99.90;;;;;;4953954;28;20058;-81
2023/06/04 05:56:57;;;;;;;5.18;3.50;;;17.10;99.90;;;;;;4953258;28;20031;-81
2023/06/04 05:59:23;;;;;;;4.03;2.53;;;17.00;99.90;;;;;;4971762;28;20034;-82
2023/06/04 06:01:49;;;;;;;5.03;2.55;;;17.20;99.90;;;;;;4970969;28;20031;-82
2023/06/04 06:04:15;;;;;;;7.00;2.90;;;17.40;99.90;;;;;;4954940;28;20035;-83
2023/06/04 06:06:43;;;;;;;5.90;3.17;;;17.40;99.90;;;;;;4954473;28;20034;-82
2023/06/04 06:09:10;;;;;;;6.10;2.50;;;17.50;99.90;;;;;;4954887;28;20019;-82
2023/06/04 06:11:36;;;;;;;5.90;2.88;;;17.50;99.90;;;;;;4954773;28;20070;-82
2023/06/04 06:14:01;;;;;;;4.43;2.60;;;17.60;99.90;;;;;;4954674;28;20054;-82
2023/06/04 06:16:27;;;;;;;6.53;3.70;;;17.50;99.90;;;;;;4955223;28;20050;-80
2023/06/04 06:18:53;;;;;;;6.32;2.75;;;;;;;;;;4942899;28;20109;-81
2023/06/04 06:21:46;;;;;;;5.38;3.10;;;17.70;99.20;;;;;;4986650;28;20034;-81
2023/06/04 06:24:12;;;;;;;5.72;3.78;;;17.40;99.10;;;;;;5100384;23;20052;-80
2023/06/04 06:26:38;;;;;;;10.00;3.42;;;17.40;99.00;;;;;;5042007;28;20030;-80
2023/06/04 06:29:04;;;;;;;7.75;3.30;;;17.30;98.90;;;;;;5044365;28;20026;-79
2023/06/04 06:31:30;;;;;;;3.47;2.55;;;17.00;99.90;;;;;;5042185;28;20030;-80
2023/06/04 06:33:56;;;;;;;6.10;3.13;;;17.10;99.90;;;;;;5047288;28;20025;-79
2023/06/04 06:36:26;;;;;;;10.18;4.00;;;;;;;;;;5034752;28;20037;-80
2023/06/04 06:38:59;;;;;;;8.07;3.33;;;17.90;99.10;;;;;;5040943;28;20033;-85
2023/06/04 06:41:26;;;;;;;5.50;2.75;;;18.90;98.10;;;;;;5030783;28;20024;-83
2023/06/04 06:43:55;;;;;;;4.93;3.30;;;20.10;95.50;;;;;;5030349;28;20205;-84
2023/06/04 06:46:20;;;;;;;;;;;20.90;90.70;;;;;;5032382;28;20501;-79
2023/06/04 06:48:46;;;;;;;4.35;3.20;;;21.30;85.70;;;;;;5013224;28;19909;-77
2023/06/04 06:51:12;;;;;;;6.75;3.45;;;21.50;82.60;;;;;;5027851;28;20037;-80
2023/06/04 06:53:39;;;;;;;6.78;3.60;;;21.80;80.90;;;;;;5027928;28;20028;-81
2023/06/04 06:56:05;;;;;;;9.45;3.97;;;22.00;77.90;;;;;;5027069;28;20037;-82
2023/06/04 06:58:30;;;;;;;8.52;3.75;;;22.10;77.60;;;;;;5028189;28;20021;-80
2023/06/04 07:00:56;;;;;;;4.30;3.40;;;21.90;77.60;;;;;;5028315;28;20442;-83
2023/06/04 07:03:22;;;;;;;4.22;3.53;;;21.00;79.20;;;;;;5027982;28;20120;-83
2023/06/04 07:05:48;;;;;;;4.97;3.10;;;;;;;;;;5037041;28;20044;-79
2023/06/04 07:08:14;;;;;;;4.80;3.53;;;20.60;80.80;;;;;;5046689;28;20033;-86
2023/06/04 07:10:40;;;;;;;5.40;3.70;;;20.50;83.10;;;;;;5026930;28;20167;-85
2023/06/04 07:18:56;;;;;;;5.13;3.53;;;19.20;88.30;;;;;;5142393;23;20054;-83
2023/06/04 07:25:08;;;;;;;10.55;4.78;;;19.00;89.40;;;;;;4904214;29;20048;-86
2023/06/04 07:27:34;;;;;;;21.65;5.03;;;19.00;90.70;;;;;;4910003;29;20028;-86
2023/06/04 07:30:00;;;;;;;61.85;32.83;;;19.10;90.50;;;;;;4911283;29;20092;-85
2023/06/04 07:32:26;;;;;;;18.38;9.85;;;19.20;91.30;;;;;;4912723;29;20060;-87
2023/06/04 07:34:51;;;;;;;9.93;5.32;;;19.50;91.20;;;;;;4912185;29;20361;-87
2023/06/04 07:37:17;;;;;;;9.13;4.53;;;19.80;91.30;;;;;;4914301;29;20178;-84
2023/06/04 07:39:42;;;;;;;5.05;4.20;;;20.00;90.70;;;;;;4912069;29;20516;-84
2023/06/04 07:42:08;;;;;;;7.40;4.35;;;20.90;89.70;;;;;;4919687;29;20107;-83
2023/06/04 07:44:35;;;;;;;5.97;4.03;;;22.00;83.90;;;;;;4931434;29;20351;-85
2023/06/04 07:47:00;;;;;;;6.55;5.07;;;22.30;81.10;;;;;;4930821;29;20159;-87
2023/06/04 07:49:26;;;;;;;5.75;3.75;;;22.40;81.00;;;;;;4930938;29;20591;-85
2023/06/04 07:51:52;;;;;;;4.75;3.80;;;22.10;79.90;;;;;;4937588;28;20065;-86
2023/06/04 07:54:17;;;;;;;5.97;3.75;;;21.60;81.20;;;;;;4954845;28;20015;-87
2023/06/04 07:56:43;;;;;;;13.52;4.60;;;21.60;83.50;;;;;;4954753;28;20034;-87
2023/06/04 08:02:31;;;;;;;6.53;3.90;;;21.60;82.50;;;;;;4989474;28;20083;-87
2023/06/04 08:05:53;;;;;;;9.40;4.47;;;20.60;84.80;;;;;;4966214;28;20027;-85
2023/06/04 08:08:22;;;;;;;7.32;4.40;;;20.50;85.00;;;;;;4984794;28;20043;-87
2023/06/04 08:11:14;;;;;;;10.77;4.43;;;21.20;86.10;;;;;;4965417;28;20027;-84
2023/06/04 08:17:03;;;;;;;7.10;4.70;;;22.10;80.40;;;;;;4986633;28;20054;-88
2023/06/04 08:19:28;;;;;;;11.00;4.75;;;22.80;79.60;;;;;;4967383;28;20022;-80
2023/06/04 08:21:55;;;;;;;9.07;4.30;;;23.40;77.40;;;;;;4959082;28;20104;-81
2023/06/04 08:24:21;;;;;;;11.45;4.90;;;23.70;74.80;;;;;;4951905;28;20034;-82
2023/06/04 08:26:47;;;;;;;5.22;4.70;;;23.70;74.60;;;;;;4965675;28;20077;-82
2023/06/04 08:29:13;;;;;;;12.63;5.05;;;;;;;;;;4956156;28;20574;-82
2023/06/04 08:31:39;;;;;;;5.22;4.53;;;23.60;75.10;;;;;;4976134;28;20295;-82
2023/06/04 08:34:05;;;;;;;7.32;4.47;;;23.50;77.10;;;;;;4986644;28;20098;-81
2023/06/04 08:36:32;;;;;;;8.40;4.85;;;23.10;75.20;;;;;;4957190;28;20505;-84
2023/06/04 08:38:58;;;;;;;6.40;4.50;;;23.70;74.80;;;;;;4957314;28;20027;-84
2023/06/04 08:41:38;;;;;;;10.50;5.15;;;23.80;74.50;;;;;;4973346;28;20135;-85
2023/06/04 08:44:06;;;;;;;10.02;4.72;;;23.80;72.30;;;;;;4967671;28;20047;-83
2023/06/04 08:46:41;;;;;;;9.10;4.35;;;24.20;73.30;;;;;;4965365;28;20492;-83
2023/06/04 08:49:08;;;;;;;7.32;5.28;;;24.90;73.10;;;;;;4963789;28;20030;-81
2023/06/04 08:51:40;;;;;;;11.65;4.68;;;24.90;71.60;;;;;;4973078;28;20046;-81
2023/06/04 08:54:07;;;;;;;8.20;5.90;;;24.20;71.80;;;;;;4977403;28;20023;-84
2023/06/04 08:56:33;;;;;;;6.63;5.28;;;23.80;73.00;;;;;;4965647;28;20365;-78
2023/06/04 08:59:06;;;;;;;8.57;5.90;;;23.70;75.00;;;;;;4972943;28;20038;-80
2023/06/04 09:01:33;;;;;;;14.20;6.28;;;23.70;75.80;;;;;;4963592;29;20026;-78
2023/06/04 09:04:01;;;;;;;7.78;5.50;;;23.40;75.30;;;;;;4944609;29;20023;-80
2023/06/04 09:06:28;;;;;;;9.70;5.60;;;22.80;75.50;;;;;;4966677;28;20268;-78
2023/06/04 09:08:59;;;;;;;14.30;6.40;;;22.90;76.00;;;;;;4947009;28;20241;-80
2023/06/04 09:11:31;;;;;;;6.93;5.28;;;23.40;75.10;;;;;;4975989;28;20030;-86
2023/06/04 09:14:01;;;;;;;10.93;5.30;;;23.40;75.20;;;;;;4978301;28;20026;-78
2023/06/04 09:16:26;;;;;;;12.07;5.30;;;23.40;76.50;;;;;;4971440;28;20031;-79
2023/06/04 09:18:53;;;;;;;13.15;5.20;;;23.70;77.40;;;;;;4978443;28;20035;-79
2023/06/04 09:21:19;;;;;;;7.35;4.97;;;23.80;75.20;;;;;;4964569;28;20315;-79
2023/06/04 09:23:49;;;;;;;12.27;6.55;;;;;;;;;;4980976;28;20042;-78
2023/06/04 09:26:15;;;;;;;9.48;5.40;;;23.60;74.30;;;;;;4952873;28;20123;-80
2023/06/04 09:28:42;;;;;;;8.50;5.30;;;23.60;74.50;;;;;;4957563;28;20424;-78
2023/06/04 09:31:09;;;;;;;13.40;5.95;;;23.70;75.60;;;;;;4956436;28;20101;-81
2023/06/04 09:33:49;;;;;;;8.98;4.80;;;23.60;75.10;;;;;;4958502;28;20136;-79
2023/06/04 09:36:17;;;;;;;6.82;4.75;;;;;;;;;;4954939;28;20031;-84
2023/06/04 09:38:43;;;;;;;10.65;5.30;;;23.50;76.70;;;;;;4971774;28;20027;-84
2023/06/04 09:41:25;;;;;;;6.88;4.97;;;24.00;75.60;;;;;;4949148;28;20110;-83
2023/06/04 09:44:11;;;;;;;10.68;6.57;;;23.60;75.10;;;;;;4979078;28;20035;-81
2023/06/04 09:46:37;;;;;;;15.90;5.18;;;24.00;72.80;;;;;;4960453;28;20070;-86
2023/06/04 09:49:05;;;;;;;8.73;5.07;;;24.10;72.80;;;;;;4946310;28;20050;-78
2023/06/04 09:51:31;;;;;;;9.65;5.43;;;;;;;;;;4962289;28;20062;-81
2023/06/04 09:53:59;;;;;;;9.05;6.30;;;23.70;73.80;;;;;;4990145;28;20420;-80
2023/06/04 09:56:26;;;;;;;8.30;5.00;;;;;;;;;;4981224;28;20024;-82
2023/06/04 09:59:03;;;;;;;11.13;5.15;;;23.80;74.40;;;;;;4968637;28;20129;-82
2023/06/04 10:01:30;;;;;;;8.27;5.20;;;24.40;72.90;;;;;;4965207;28;20258;-82
2023/06/04 10:04:03;;;;;;;6.97;4.78;;;;;;;;;;4967970;28;20023;-85
2023/06/04 10:06:34;;;;;;;8.35;4.38;;;24.90;70.80;;;;;;4984453;28;20106;-86
2023/06/04 10:09:05;;;;;;;10.98;5.07;;;25.20;72.70;;;;;;4963271;28;20021;-78
2023/06/04 10:11:51;;;;;;;8.80;4.50;;;25.20;73.30;;;;;;4970888;28;20234;-78
2023/06/04 10:14:21;;;;;;;9.10;4.93;;;25.90;69.50;;;;;;4965079;28;20424;-81
2023/06/04 10:16:48;;;;;;;7.80;5.28;;;25.70;68.60;;;;;;4982042;28;20073;-77
2023/06/04 10:19:15;;;;;;;6.85;4.15;;;25.70;68.10;;;;;;4982127;28;20026;-85
2023/06/04 10:21:43;;;;;;;8.93;5.07;;;25.60;68.50;;;;;;4961504;28;20037;-80
2023/06/04 10:24:09;;;;;;;7.30;4.80;;;25.30;69.90;;;;;;4977061;28;20027;-78
2023/06/04 10:26:35;;;;;;;9.00;4.95;;;24.90;70.90;;;;;;4952673;29;20039;-77
2023/06/04 10:29:02;;;;;;;7.93;5.10;;;24.90;70.20;;;;;;4953594;29;20020;-82
2023/06/04 10:31:28;;;;;;;6.25;5.15;;;25.20;69.80;;;;;;4957961;29;20078;-77
2023/06/04 10:33:57;;;;;;;8.35;3.97;;;25.10;69.20;;;;;;4957313;29;20038;-78
2023/06/04 10:36:24;;;;;;;9.75;4.90;;;25.30;69.60;;;;;;4958435;29;20042;-81
2023/06/04 10:38:55;;;;;;;12.45;4.57;;;25.50;67.30;;;;;;4959562;29;20027;-77
2023/06/04 10:41:22;;;;;;;5.85;4.65;;;25.60;68.00;;;;;;4944114;29;20231;-76
2023/06/04 10:43:49;;;;;;;7.13;4.00;;;26.80;65.70;;;;;;4962126;29;20038;-79
2023/06/04 10:46:19;;;;;;;8.27;4.25;;;26.80;64.00;;;;;;4958958;28;20030;-82
2023/06/04 10:48:50;;;;;;;9.00;4.32;;;26.80;66.70;;;;;;4954272;28;20022;-79
2023/06/04 10:51:29;;;;;;;8.98;4.57;;;25.50;66.50;;;;;;4961690;28;20026;-77
2023/06/04 10:53:55;;;;;;;;;;;25.40;67.80;;;;;;4965571;28;20042;-79
2023/06/04 10:56:29;;;;;;;8.18;3.92;;;25.50;66.70;;;;;;4964274;28;19965;-78
2023/06/04 10:58:55;;;;;;;5.93;4.32;;;25.20;68.70;;;;;;4964741;28;20019;-77
2023/06/04 11:01:28;;;;;;;8.35;4.38;;;25.30;67.20;;;;;;4981375;28;20027;-78
2023/06/04 11:03:55;;;;;;;4.75;4.25;;;25.30;67.60;;;;;;4964189;28;20038;-77
2023/06/04 11:06:21;;;;;;;9.43;4.05;;;25.30;67.80;;;;;;4982895;28;20034;-85
2023/06/04 11:08:48;;;;;;;7.22;4.47;;;25.40;66.40;;;;;;4985684;28;20015;-78
2023/06/04 11:11:16;;;;;;;4.82;3.90;;;;;;;;;;4980994;28;20046;-86
2023/06/04 11:13:43;;;;;;;11.05;4.57;;;25.60;66.10;;;;;;4964039;28;20085;-83
2023/06/04 11:16:19;;;;;;;6.68;3.78;;;25.70;66.60;;;;;;4962615;28;20058;-76
2023/06/04 11:18:56;;;;;;;6.90;3.80;;;25.50;65.40;;;;;;4976350;28;20046;-77
2023/06/04 11:21:22;;;;;;;6.80;4.40;;;25.70;65.50;;;;;;4979400;28;20023;-75
2023/06/04 11:23:48;;;;;;;6.22;4.22;;;25.90;66.90;;;;;;4972777;28;20569;-83
2023/06/04 11:26:13;;;;;;;4.63;3.72;;;26.00;63.30;;;;;;4942235;29;20050;-78
2023/06/04 11:28:42;;;;;;;7.18;3.72;;;26.20;64.00;;;;;;4957642;29;20031;-79
2023/06/04 11:31:08;;;;;;;5.22;3.67;;;25.90;64.00;;;;;;4940913;29;20479;-81
2023/06/04 11:33:44;;;;;;;5.68;3.92;;;26.10;64.60;;;;;;4939835;29;20425;-81
2023/06/04 11:36:10;;;;;;;4.60;3.83;;;26.10;63.80;;;;;;4938347;29;20030;-82
2023/06/04 11:38:36;;;;;;;5.30;3.78;;;25.70;64.30;;;;;;4937914;29;20030;-83
2023/06/04 11:41:03;;;;;;;4.95;3.67;;;25.90;64.10;;;;;;4937293;29;20031;-83
2023/06/04 11:43:29;;;;;;;5.40;3.25;;;26.30;63.90;;;;;;4938213;29;20107;-81
2023/06/04 11:45:55;;;;;;;5.85;3.35;;;26.60;63.40;;;;;;4943822;29;20039;-86
2023/06/04 11:48:21;;;;;;;6.75;3.70;;;26.60;61.90;;;;;;4944436;29;20087;-78
2023/06/04 11:50:46;;;;;;;7.70;4.15;;;26.30;63.70;;;;;;4958909;29;20035;-83
2023/06/04 11:53:12;;;;;;;7.05;4.30;;;26.30;63.40;;;;;;4963835;28;20044;-79
2023/06/04 11:55:39;;;;;;;6.05;4.05;;;26.50;63.30;;;;;;4954772;29;20061;-83
2023/06/04 11:58:04;;;;;;;6.43;3.67;;;26.70;62.00;;;;;;4956536;29;20023;-84
2023/06/04 12:00:30;;;;;;;5.22;3.50;;;26.10;62.80;;;;;;4956363;29;20147;-82
2023/06/04 12:02:56;;;;;;;5.85;4.07;;;26.70;62.20;;;;;;4955467;29;20397;-79
2023/06/04 12:05:28;;;;;;;4.10;3.67;;;26.70;60.90;;;;;;4937502;29;20043;-79
2023/06/04 12:08:09;;;;;;;7.18;3.90;;;26.80;60.80;;;;;;4938048;29;20031;-83
2023/06/04 12:10:43;;;;;;;14.50;4.20;;;27.20;61.60;;;;;;4948237;29;20341;-78
2023/06/04 12:13:09;;;;;;;6.22;3.35;;;27.10;60.60;;;;;;4939199;29;20404;-78
2023/06/04 12:15:36;;;;;;;7.25;3.90;;;27.00;61.20;;;;;;4955921;29;20031;-80
2023/06/04 12:18:04;;;;;;;5.88;3.17;;;27.10;61.30;;;;;;4938826;29;20051;-82
2023/06/04 12:20:41;;;;;;;5.38;3.95;;;27.10;60.30;;;;;;4960048;29;20035;-83
2023/06/04 12:23:07;;;;;;;5.78;3.60;;;27.60;60.20;;;;;;4944410;29;20074;-78
2023/06/04 12:25:34;;;;;;;4.97;3.60;;;27.60;61.00;;;;;;4954564;28;20697;-79
2023/06/04 12:28:01;;;;;;;7.32;4.20;;;27.40;60.80;;;;;;4944363;28;20077;-79
2023/06/04 12:30:40;;;;;;;5.80;3.42;;;27.10;62.10;;;;;;4965539;28;20037;-79
2023/06/04 12:33:06;;;;;;;5.97;3.08;;;27.00;62.10;;;;;;4951272;28;20042;-79
2023/06/04 12:35:32;;;;;;;4.90;3.67;;;27.20;63.10;;;;;;4948846;28;20388;-79
2023/06/04 12:37:58;;;;;;;7.65;4.03;;;27.40;61.50;;;;;;4969061;28;20491;-79
2023/06/04 12:40:23;;;;;;;7.43;3.47;;;27.50;61.70;;;;;;4974305;28;20050;-79
2023/06/04 12:42:52;;;;;;;5.57;3.85;;;27.50;60.70;;;;;;4946721;28;20038;-79
2023/06/04 12:45:18;;;;;;;4.40;3.67;;;;;;;;;;4976432;28;20039;-80
2023/06/04 12:47:44;;;;;;;5.57;3.50;;;27.50;60.30;;;;;;4947851;28;20054;-81
2023/06/04 12:50:10;;;;;;;7.38;3.58;;;27.80;60.20;;;;;;4979009;28;20027;-80
2023/06/04 12:52:36;;;;;;;7.53;3.90;;;27.50;58.70;;;;;;4953249;29;20227;-80
2023/06/04 12:55:02;;;;;;;5.45;3.40;;;28.10;60.10;;;;;;4960702;28;20322;-79
2023/06/04 12:57:27;;;;;;;7.05;3.63;;;28.00;58.20;;;;;;4965882;28;20034;-79
2023/06/04 12:59:53;;;;;;;4.22;3.42;;;28.20;57.80;;;;;;4964899;28;20042;-80
2023/06/04 13:02:18;;;;;;;3.72;3.15;;;27.80;58.40;;;;;;4975568;28;20061;-80
2023/06/04 13:04:44;;;;;;;5.35;3.22;;;27.70;58.60;;;;;;4977189;28;20026;-79
2023/06/04 13:07:10;;;;;;;6.18;3.67;;;27.70;57.40;;;;;;4959483;28;20027;-79
2023/06/04 13:09:35;;;;;;;8.45;3.88;;;28.40;58.30;;;;;;4958265;28;20031;-80
2023/06/04 13:12:01;;;;;;;5.65;3.97;;;27.40;59.10;;;;;;4956188;28;20034;-80
2023/06/04 13:14:27;;;;;;;6.00;3.80;;;27.60;58.60;;;;;;4938872;28;20035;-79
2023/06/04 13:16:53;;;;;;;11.25;4.85;;;;;;;;;;4975323;28;20514;-80
2023/06/04 13:19:21;;;;;;;5.10;3.90;;;27.90;58.80;;;;;;4951548;28;20035;-80
2023/06/04 13:21:47;;;;;;;7.10;3.60;;;27.60;60.20;;;;;;4943915;28;20049;-78
2023/06/04 13:24:12;;;;;;;3.47;3.15;;;27.70;59.20;;;;;;4964175;28;20507;-79
2023/06/04 13:26:38;;;;;;;4.82;3.70;;;27.80;59.50;;;;;;4962383;28;20037;-79
2023/06/04 13:29:04;;;;;;;5.20;3.65;;;;;;;;;;4971603;28;20376;-86
2023/06/04 13:31:30;;;;;;;6.97;3.85;;;27.70;60.10;;;;;;4960902;28;20105;-80
2023/06/04 13:33:56;;;;;;;7.18;4.00;;;27.40;59.00;;;;;;4956195;28;20437;-79